createdAt,value
2019-06-01T00:00:10.271Z,14.301758
2019-06-01T00:00:56.456Z,14.281616
2019-06-01T00:01:55.488Z,14.261475
2019-06-01T00:02:57.115Z,14.251404
2019-06-01T00:03:55.748Z,14.251404
2019-06-01T00:04:55.751Z,14.221191
2019-06-01T00:05:55.872Z,14.20105
2019-06-01T00:06:55.954Z,14.221191
2019-06-01T00:07:56.027Z,14.190979
2019-06-01T00:08:56.140Z,14.180908
2019-06-01T00:09:56.262Z,14.180908
2019-06-01T00:10:56.380Z,14.160767
2019-06-01T00:11:56.480Z,14.130554
2019-06-01T00:12:56.561Z,14.130554
2019-06-01T00:13:56.622Z,14.110413
2019-06-01T00:14:56.757Z,14.110413
2019-06-01T00:15:56.819Z,14.070129
2019-06-01T00:16:56.871Z,14.049988
2019-06-01T00:17:56.955Z,14.049988
2019-06-01T00:18:57.032Z,14.039917
2019-06-01T00:19:58.183Z,14.029846
2019-06-01T00:20:57.253Z,13.999634
2019-06-01T00:21:57.326Z,13.999634
2019-06-01T00:22:57.451Z,13.979492
2019-06-01T00:23:57.574Z,13.969421
2019-06-01T00:24:57.652Z,13.94928
2019-06-01T00:25:57.707Z,13.939209
2019-06-01T00:26:57.773Z,13.929138
2019-06-01T00:27:57.848Z,13.929138
2019-06-01T00:28:57.907Z,13.888855
2019-06-01T00:29:58.008Z,13.868713
2019-06-01T00:30:59.066Z,13.858643
2019-06-01T00:31:59.135Z,13.848572
2019-06-01T00:32:58.207Z,13.848572
2019-06-01T00:33:58.315Z,13.848572
2019-06-01T00:34:58.457Z,13.82843
2019-06-01T00:35:58.556Z,13.82843
2019-06-01T00:36:58.622Z,13.818359
2019-06-01T00:37:58.766Z,13.818359
2019-06-01T00:38:58.906Z,13.788147
2019-06-01T00:39:59.068Z,13.798218
2019-06-01T00:40:59.151Z,13.798218
2019-06-01T00:41:59.221Z,13.798218
2019-06-01T00:42:59.291Z,13.788147
2019-06-01T00:43:59.352Z,13.757935
2019-06-01T00:44:59.501Z,13.747864
2019-06-01T00:45:59.564Z,13.727722
2019-06-01T00:46:59.625Z,13.747864
2019-06-01T00:48:00.724Z,13.727722
2019-06-01T00:48:59.787Z,13.727722
2019-06-01T00:49:59.888Z,13.69751
2019-06-01T00:50:59.942Z,13.69751
2019-06-01T00:51:59.998Z,13.69751
2019-06-01T00:53:00.061Z,13.677368
2019-06-01T00:54:00.146Z,13.677368
2019-06-01T00:55:00.244Z,13.647156
2019-06-01T00:56:00.301Z,13.637085
2019-06-01T00:57:00.370Z,13.616943
2019-06-01T00:58:00.435Z,13.616943
2019-06-01T00:59:00.485Z,13.606873
2019-06-01T01:00:00.666Z,13.596802
2019-06-01T01:01:00.742Z,13.57666
2019-06-01T01:02:00.810Z,13.57666
2019-06-01T01:03:00.861Z,13.566589
2019-06-01T01:04:00.938Z,13.566589
2019-06-01T01:05:02.032Z,13.546448
2019-06-01T01:06:01.135Z,13.536377
2019-06-01T01:07:01.201Z,13.546448
2019-06-01T01:08:01.327Z,13.536377
2019-06-01T01:09:01.365Z,13.536377
2019-06-01T01:10:01.439Z,13.536377
2019-06-01T01:11:01.567Z,13.516235
2019-06-01T01:12:01.621Z,13.496094
2019-06-01T01:13:01.689Z,13.486023
2019-06-01T01:14:01.761Z,13.486023
2019-06-01T01:15:02.043Z,13.465881
2019-06-01T01:16:01.934Z,13.425598
2019-06-01T01:17:02.007Z,13.395386
2019-06-01T01:18:02.080Z,13.395386
2019-06-01T01:19:02.132Z,13.365173
2019-06-01T01:20:02.193Z,13.334961
2019-06-01T01:21:02.304Z,13.334961
2019-06-01T01:22:02.356Z,13.334961
2019-06-01T01:23:02.421Z,13.314819
2019-06-01T01:24:02.485Z,13.304749
2019-06-01T01:25:02.561Z,13.304749
2019-06-01T01:26:02.678Z,13.304749
2019-06-01T01:27:02.741Z,13.304749
2019-06-01T01:28:02.790Z,13.314819
2019-06-01T01:29:02.876Z,13.304749
2019-06-01T01:30:02.938Z,13.304749
2019-06-01T01:31:13.115Z,13.284607
2019-06-01T01:32:03.079Z,13.274536
2019-06-01T01:33:03.160Z,13.274536
2019-06-01T01:34:03.214Z,13.264465
2019-06-01T01:35:03.346Z,13.264465
2019-06-01T01:36:03.440Z,13.244324
2019-06-01T01:37:03.501Z,13.234253
2019-06-01T01:38:03.565Z,13.234253
2019-06-01T01:39:03.641Z,13.234253
2019-06-01T01:40:03.732Z,13.214111
2019-06-01T01:41:03.836Z,13.234253
2019-06-01T01:42:03.930Z,13.204041
2019-06-01T01:43:03.990Z,13.214111
2019-06-01T01:44:04.053Z,13.19397
2019-06-01T01:45:04.115Z,13.19397
2019-06-01T01:46:04.184Z,13.163757
2019-06-01T01:47:04.290Z,13.163757
2019-06-01T01:48:04.345Z,13.163757
2019-06-01T01:49:04.405Z,13.133545
2019-06-01T01:50:04.495Z,13.123474
2019-06-01T01:51:04.558Z,13.113403
2019-06-01T01:52:04.644Z,13.113403
2019-06-01T01:53:04.704Z,13.123474
2019-06-01T01:54:04.770Z,13.093262
2019-06-01T01:55:04.820Z,13.093262
2019-06-01T01:56:04.898Z,13.093262
2019-06-01T01:57:07.162Z,13.083191
2019-06-01T01:58:05.044Z,13.063049
2019-06-01T01:59:05.106Z,13.052979
2019-06-01T02:00:05.167Z,13.052979
2019-06-01T02:01:21.164Z,13.022766
2019-06-01T02:02:05.274Z,13.022766
2019-06-01T02:03:05.363Z,13.012695
2019-06-01T02:04:06.416Z,13.012695
2019-06-01T02:05:05.564Z,13.012695
2019-06-01T02:06:05.647Z,13.012695
2019-06-01T02:07:05.711Z,12.992554
2019-06-01T02:08:05.821Z,12.982483
2019-06-01T02:09:05.879Z,12.952271
2019-06-01T02:10:05.949Z,12.9422
2019-06-01T02:11:06.009Z,12.932129
2019-06-01T02:12:06.112Z,12.911987
2019-06-01T02:13:06.222Z,12.911987
2019-06-01T02:14:06.280Z,12.901917
2019-06-01T02:15:06.355Z,12.901917
2019-06-01T02:16:06.412Z,12.871704
2019-06-01T02:17:06.491Z,12.901917
2019-06-01T02:18:07.568Z,12.871704
2019-06-01T02:19:06.669Z,12.881775
2019-06-01T02:20:06.743Z,12.871704
2019-06-01T02:21:06.801Z,12.871704
2019-06-01T02:22:06.874Z,12.871704
2019-06-01T02:23:06.966Z,12.871704
2019-06-01T02:24:07.043Z,12.861633
2019-06-01T02:25:07.087Z,12.861633
2019-06-01T02:26:07.148Z,12.831421
2019-06-01T02:27:07.213Z,12.831421
2019-06-01T02:28:07.295Z,12.811279
2019-06-01T02:29:07.358Z,12.811279
2019-06-01T02:30:07.411Z,12.801208
2019-06-01T02:31:07.458Z,12.801208
2019-06-01T02:32:07.529Z,12.781067
2019-06-01T02:33:07.613Z,12.781067
2019-06-01T02:34:07.663Z,12.781067
2019-06-01T02:35:07.704Z,12.781067
2019-06-01T02:36:07.771Z,12.760925
2019-06-01T02:37:07.827Z,12.750854
2019-06-01T02:38:07.930Z,12.760925
2019-06-01T02:39:08.002Z,12.730713
2019-06-01T02:40:08.054Z,12.720642
2019-06-01T02:41:08.111Z,12.730713
2019-06-01T02:42:08.188Z,12.7005
2019-06-01T02:43:08.392Z,12.7005
2019-06-01T02:44:08.341Z,12.7005
2019-06-01T02:45:08.404Z,12.69043
2019-06-01T02:46:08.470Z,12.69043
2019-06-01T02:47:08.529Z,12.69043
2019-06-01T02:48:08.592Z,12.69043
2019-06-01T02:49:08.699Z,12.69043
2019-06-01T02:50:08.753Z,12.680359
2019-06-01T02:51:08.815Z,12.680359
2019-06-01T02:52:08.868Z,12.680359
2019-06-01T02:53:08.933Z,12.660217
2019-06-01T02:54:09.026Z,12.660217
2019-06-01T02:55:09.094Z,12.660217
2019-06-01T02:56:09.123Z,12.650146
2019-06-01T02:57:09.204Z,12.630005
2019-06-01T02:58:09.268Z,12.630005
2019-06-01T02:59:09.378Z,12.619934
2019-06-01T03:00:09.455Z,12.630005
2019-06-01T03:01:09.517Z,12.579651
2019-06-01T03:02:12.883Z,12.619934
2019-06-01T03:03:09.655Z,12.579651
2019-06-01T03:04:09.776Z,12.579651
2019-06-01T03:05:09.840Z,12.56958
2019-06-01T03:06:09.922Z,12.549438
2019-06-01T03:07:09.985Z,12.549438
2019-06-01T03:08:10.041Z,12.549438
2019-06-01T03:09:10.113Z,12.539368
2019-06-01T03:10:10.183Z,12.549438
2019-06-01T03:11:10.269Z,12.539368
2019-06-01T03:12:10.333Z,12.539368
2019-06-01T03:13:10.410Z,12.529297
2019-06-01T03:14:10.504Z,12.539368
2019-06-01T03:15:10.562Z,12.539368
2019-06-01T03:16:10.624Z,12.539368
2019-06-01T03:17:12.014Z,12.539368
2019-06-01T03:18:11.809Z,12.549438
2019-06-01T03:19:12.103Z,12.549438
2019-06-01T03:20:11.864Z,12.56958
2019-06-01T03:21:11.963Z,12.539368
2019-06-01T03:22:12.089Z,12.56958
2019-06-01T03:23:12.060Z,12.56958
2019-06-01T03:24:13.012Z,12.579651
2019-06-01T03:25:12.307Z,12.56958
2019-06-01T03:26:12.418Z,12.56958
2019-06-01T03:27:12.424Z,12.609863
2019-06-01T03:28:12.402Z,12.579651
2019-06-01T03:29:12.640Z,12.609863
2019-06-01T03:30:14.774Z,12.609863
2019-06-01T03:31:13.154Z,12.579651
2019-06-01T03:32:28.821Z,12.619934
2019-06-01T03:33:13.815Z,12.619934
2019-06-01T03:34:13.784Z,12.619934
2019-06-01T03:35:12.988Z,12.650146
2019-06-01T03:36:13.076Z,12.650146
2019-06-01T03:37:11.823Z,12.650146
2019-06-01T03:38:11.815Z,12.650146
2019-06-01T03:39:13.037Z,12.650146
2019-06-01T03:40:23.025Z,12.680359
2019-06-01T03:41:12.367Z,12.680359
2019-06-01T03:42:11.891Z,12.69043
2019-06-01T03:43:11.910Z,12.69043
2019-06-01T03:44:12.936Z,12.7005
2019-06-01T03:45:12.924Z,12.720642
2019-06-01T03:46:13.007Z,12.730713
2019-06-01T03:47:12.112Z,12.750854
2019-06-01T03:48:13.144Z,12.781067
2019-06-01T03:49:12.150Z,12.760925
2019-06-01T03:50:13.227Z,12.831421
2019-06-01T03:51:12.291Z,12.841492
2019-06-01T03:52:13.066Z,12.871704
2019-06-01T03:53:12.341Z,12.901917
2019-06-01T03:54:13.221Z,12.911987
2019-06-01T03:55:12.535Z,12.9422
2019-06-01T03:56:12.552Z,12.952271
2019-06-01T03:57:12.577Z,12.982483
2019-06-01T03:58:12.602Z,12.992554
2019-06-01T03:59:12.622Z,13.022766
2019-06-01T04:00:12.650Z,13.052979
2019-06-01T04:01:12.652Z,13.063049
2019-06-01T04:02:12.668Z,13.083191
2019-06-01T04:03:12.685Z,13.093262
2019-06-01T04:04:12.686Z,13.113403
2019-06-01T04:05:12.740Z,13.123474
2019-06-01T04:06:12.738Z,13.163757
2019-06-01T04:07:12.745Z,13.19397
2019-06-01T04:08:12.767Z,13.19397
2019-06-01T04:09:12.779Z,13.234253
2019-06-01T04:10:12.825Z,13.244324
2019-06-01T04:11:12.832Z,13.264465
2019-06-01T04:12:12.847Z,13.284607
2019-06-01T04:13:12.851Z,13.304749
2019-06-01T04:14:12.924Z,13.304749
2019-06-01T04:15:16.313Z,13.334961
2019-06-01T04:16:13.021Z,13.355103
2019-06-01T04:17:13.038Z,13.365173
2019-06-01T04:18:13.871Z,13.415527
2019-06-01T04:19:13.110Z,13.425598
2019-06-01T04:20:13.215Z,13.455811
2019-06-01T04:21:13.335Z,13.496094
2019-06-01T04:22:13.379Z,13.536377
2019-06-01T04:23:13.424Z,13.536377
2019-06-01T04:24:13.489Z,13.566589
2019-06-01T04:25:13.504Z,13.57666
2019-06-01T04:26:13.608Z,13.606873
2019-06-01T04:27:13.592Z,13.637085
2019-06-01T04:28:13.651Z,13.647156
2019-06-01T04:29:13.673Z,13.677368
2019-06-01T04:30:13.807Z,13.69751
2019-06-01T04:31:13.788Z,13.727722
2019-06-01T04:32:13.906Z,13.757935
2019-06-01T04:33:13.947Z,13.778076
2019-06-01T04:34:13.999Z,13.798218
2019-06-01T04:35:14.020Z,13.82843
2019-06-01T04:36:14.057Z,13.848572
2019-06-01T04:37:14.386Z,13.888855
2019-06-01T04:38:14.144Z,13.888855
2019-06-01T04:39:14.487Z,13.929138
2019-06-01T04:40:14.256Z,13.939209
2019-06-01T04:41:14.275Z,13.979492
2019-06-01T04:42:14.313Z,14.009705
2019-06-01T04:43:14.311Z,14.039917
2019-06-01T04:44:14.483Z,14.0802
2019-06-01T04:45:14.457Z,14.110413
2019-06-01T04:46:14.509Z,14.150696
2019-06-01T04:47:14.595Z,14.160767
2019-06-01T04:48:14.711Z,14.20105
2019-06-01T04:49:14.964Z,14.251404
2019-06-01T04:50:14.855Z,14.301758
2019-06-01T04:51:14.937Z,14.33197
2019-06-01T04:52:15.212Z,14.372253
2019-06-01T04:53:15.549Z,14.412537
2019-06-01T04:54:15.978Z,14.45282
2019-06-01T04:55:15.133Z,14.483032
2019-06-01T04:56:15.238Z,14.533386
2019-06-01T04:57:15.097Z,14.563599
2019-06-01T04:58:15.063Z,14.613953
2019-06-01T04:59:15.273Z,14.664307
2019-06-01T05:00:25.599Z,14.664307
2019-06-01T05:01:15.116Z,14.684448
2019-06-01T05:02:15.212Z,14.70459
2019-06-01T05:03:15.343Z,14.714661
2019-06-01T05:04:15.399Z,14.765015
2019-06-01T05:05:15.441Z,14.785156
2019-06-01T05:06:15.499Z,14.805298
2019-06-01T05:07:15.557Z,14.845581
2019-06-01T05:08:15.585Z,14.855652
2019-06-01T05:09:15.786Z,14.885864
2019-06-01T05:10:16.087Z,14.916077
2019-06-01T05:11:15.806Z,14.936218
2019-06-01T05:12:15.708Z,14.966431
2019-06-01T05:13:15.766Z,15.016785
2019-06-01T05:14:16.468Z,15.036926
2019-06-01T05:15:16.134Z,15.067139
2019-06-01T05:16:16.572Z,15.097351
2019-06-01T05:17:16.710Z,15.137634
2019-06-01T05:18:18.395Z,15.137634
2019-06-01T05:19:16.562Z,15.167847
2019-06-01T05:20:16.599Z,15.177917
2019-06-01T05:21:16.825Z,15.177917
2019-06-01T05:22:16.709Z,15.218201
2019-06-01T05:23:16.940Z,15.258484
2019-06-01T05:24:17.075Z,15.268555
2019-06-01T05:25:17.161Z,15.318909
2019-06-01T05:26:17.126Z,15.328979
2019-06-01T05:27:17.316Z,15.369263
2019-06-01T05:28:17.443Z,15.449829
2019-06-01T05:29:17.999Z,15.480042
2019-06-01T05:30:17.542Z,15.510254
2019-06-01T05:31:23.382Z,15.540466
2019-06-01T05:32:16.793Z,15.59082
2019-06-01T05:33:29.056Z,15.661316
2019-06-01T05:34:18.151Z,15.701599
2019-06-01T05:35:17.914Z,15.782166
2019-06-01T05:36:18.206Z,15.84259
2019-06-01T05:37:16.842Z,15.872803
2019-06-01T05:38:16.838Z,15.923157
2019-06-01T05:39:16.855Z,15.993652
2019-06-01T05:40:16.869Z,16.064148
2019-06-01T05:41:16.926Z,16.124573
2019-06-01T05:42:17.028Z,16.174927
2019-06-01T05:43:18.978Z,16.235352
2019-06-01T05:44:17.054Z,16.315918
2019-06-01T05:45:17.211Z,16.426697
2019-06-01T05:46:18.051Z,16.487122
2019-06-01T05:47:18.314Z,16.547546
2019-06-01T05:48:23.564Z,16.577759
2019-06-01T05:49:17.116Z,16.618042
2019-06-01T05:50:18.438Z,16.648254
2019-06-01T05:51:18.549Z,16.688538
2019-06-01T05:52:17.170Z,16.759033
2019-06-01T05:53:17.210Z,16.799316
2019-06-01T05:54:17.275Z,16.920166
2019-06-01T05:55:17.288Z,16.97052
2019-06-01T05:56:17.328Z,17.041016
2019-06-01T05:57:19.320Z,17.09137
2019-06-01T05:58:17.406Z,17.121582
2019-06-01T05:59:18.196Z,17.171936
2019-06-01T06:00:17.409Z,17.171936
2019-06-01T06:01:19.562Z,17.22229
2019-06-01T06:02:17.569Z,17.272644
2019-06-01T06:03:20.704Z,17.302856
2019-06-01T06:04:17.669Z,17.312927
2019-06-01T06:05:18.674Z,17.312927
2019-06-01T06:06:17.829Z,17.34314
2019-06-01T06:07:18.778Z,17.35321
2019-06-01T06:08:18.064Z,17.373352
2019-06-01T06:09:19.037Z,17.423706
2019-06-01T06:10:18.413Z,17.574768
2019-06-01T06:11:18.772Z,17.927246
2019-06-01T06:12:19.352Z,18.450928
2019-06-01T06:13:19.299Z,18.974609
2019-06-01T06:14:18.086Z,19.528503
2019-06-01T06:15:18.094Z,20.042114
2019-06-01T06:16:18.390Z,20.626221
2019-06-01T06:17:19.827Z,20.918274
2019-06-01T06:18:18.155Z,20.767212
2019-06-01T06:19:20.945Z,20.324097
2019-06-01T06:20:18.222Z,19.921265
2019-06-01T06:21:18.557Z,19.619141
2019-06-01T06:22:18.281Z,19.347229
2019-06-01T06:23:18.514Z,19.10553
2019-06-01T06:24:18.595Z,18.964539
2019-06-01T06:25:18.348Z,18.85376
2019-06-01T06:26:19.023Z,18.742981
2019-06-01T06:27:18.570Z,18.672485
2019-06-01T06:28:18.761Z,18.632202
2019-06-01T06:29:19.443Z,18.551636
2019-06-01T06:30:18.981Z,18.521423
2019-06-01T06:31:19.119Z,18.491211
2019-06-01T06:32:19.220Z,18.460999
2019-06-01T06:33:19.334Z,18.430786
2019-06-01T06:34:19.684Z,18.430786
2019-06-01T06:35:19.480Z,18.430786
2019-06-01T06:36:19.674Z,18.420715
2019-06-01T06:37:19.741Z,18.430786
2019-06-01T06:38:19.769Z,18.460999
2019-06-01T06:39:19.913Z,18.511353
2019-06-01T06:40:18.726Z,18.531494
2019-06-01T06:41:18.739Z,18.571777
2019-06-01T06:42:18.782Z,18.581848
2019-06-01T06:43:24.721Z,18.612061
2019-06-01T06:44:19.019Z,18.642273
2019-06-01T06:45:19.065Z,18.662415
2019-06-01T06:46:20.727Z,18.702698
2019-06-01T06:47:19.062Z,18.712769
2019-06-01T06:48:19.307Z,18.783264
2019-06-01T06:49:19.239Z,18.823547
2019-06-01T06:50:19.385Z,18.883972
2019-06-01T06:51:19.385Z,18.98468
2019-06-01T06:52:19.537Z,19.035034
2019-06-01T06:53:28.077Z,19.014893
2019-06-01T06:54:19.843Z,19.014893
2019-06-01T06:55:19.879Z,19.065247
2019-06-01T06:56:19.908Z,19.10553
2019-06-01T06:57:20.136Z,19.155884
2019-06-01T06:58:21.005Z,19.216309
2019-06-01T06:59:20.364Z,19.226379
2019-06-01T07:00:20.597Z,19.266663
2019-06-01T07:01:20.671Z,19.286804
2019-06-01T07:02:20.841Z,19.337158
2019-06-01T07:03:21.002Z,19.387512
2019-06-01T07:04:21.024Z,19.437866
2019-06-01T07:05:21.254Z,19.468079
2019-06-01T07:06:20.098Z,19.528503
2019-06-01T07:07:20.113Z,19.588928
2019-06-01T07:08:20.121Z,19.629211
2019-06-01T07:09:20.145Z,19.699707
2019-06-01T07:10:20.220Z,19.750061
2019-06-01T07:11:21.184Z,19.790344
2019-06-01T07:12:21.204Z,19.850769
2019-06-01T07:13:21.277Z,19.901123
2019-06-01T07:14:21.251Z,19.931335
2019-06-01T07:15:21.368Z,19.901123
2019-06-01T07:16:21.417Z,19.921265
2019-06-01T07:17:21.394Z,19.961548
2019-06-01T07:18:21.510Z,20.021973
2019-06-01T07:19:21.544Z,20.082397
2019-06-01T07:20:21.513Z,20.122681
2019-06-01T07:21:21.584Z,20.11261
2019-06-01T07:22:21.639Z,20.11261
2019-06-01T07:23:21.697Z,20.082397
2019-06-01T07:24:21.737Z,20.142822
2019-06-01T07:25:21.791Z,20.142822
2019-06-01T07:26:21.893Z,20.213318
2019-06-01T07:27:21.983Z,20.334167
2019-06-01T07:28:21.975Z,20.888062
2019-06-01T07:29:22.076Z,21.915283
2019-06-01T07:30:22.186Z,23.073425
2019-06-01T07:31:22.364Z,23.75824
2019-06-01T07:32:22.038Z,24.432983
2019-06-01T07:33:22.376Z,25.238647
2019-06-01T07:34:33.145Z,25.742188
2019-06-01T07:35:22.700Z,26.235657
2019-06-01T07:36:22.220Z,26.759338
2019-06-01T07:37:22.558Z,27.071533
2019-06-01T07:38:22.254Z,27.454224
2019-06-01T07:39:22.579Z,27.28302
2019-06-01T07:40:22.923Z,27.595215
2019-06-01T07:41:22.546Z,27.333374
2019-06-01T07:42:23.416Z,27.262878
2019-06-01T07:43:22.572Z,27.333374
2019-06-01T07:44:22.707Z,27.575073
2019-06-01T07:45:22.865Z,27.756348
2019-06-01T07:46:22.760Z,28.028259
2019-06-01T07:47:22.735Z,27.967834
2019-06-01T07:48:23.071Z,27.877197
2019-06-01T07:49:23.186Z,27.90741
2019-06-01T07:50:22.294Z,27.947693
2019-06-01T07:51:23.187Z,27.595215
2019-06-01T07:52:22.478Z,27.826843
2019-06-01T07:53:24.006Z,27.967834
2019-06-01T07:54:22.540Z,28.03833
2019-06-01T07:55:23.470Z,27.897339
2019-06-01T07:56:22.708Z,27.846985
2019-06-01T07:57:23.553Z,27.444153
2019-06-01T07:58:22.673Z,27.625427
2019-06-01T07:59:24.363Z,27.705994
2019-06-01T08:00:24.014Z,27.90741
2019-06-01T08:01:24.956Z,28.088684
2019-06-01T08:02:25.793Z,28.149109
2019-06-01T08:03:25.979Z,28.15918
2019-06-01T08:04:24.222Z,28.350525
2019-06-01T08:05:23.699Z,28.370667
2019-06-01T08:06:23.943Z,28.058472
2019-06-01T08:07:24.475Z,27.66571
2019-06-01T08:08:23.382Z,27.454224
2019-06-01T08:09:24.451Z,27.776489
2019-06-01T08:10:24.511Z,28.179321
2019-06-01T08:11:24.976Z,28.723145
2019-06-01T08:12:23.326Z,28.703003
2019-06-01T08:13:23.445Z,27.998047
2019-06-01T08:14:24.480Z,27.877197
2019-06-01T08:15:23.618Z,27.806702
2019-06-01T08:16:23.690Z,27.977905
2019-06-01T08:17:24.033Z,27.937622
2019-06-01T08:18:23.884Z,28.199463
2019-06-01T08:19:23.832Z,28.350525
2019-06-01T08:20:23.971Z,28.098755
2019-06-01T08:21:23.953Z,28.078613
2019-06-01T08:22:23.893Z,28.098755
2019-06-01T08:23:24.103Z,28.058472
2019-06-01T08:24:24.185Z,27.877197
2019-06-01T08:25:24.264Z,28.249817
2019-06-01T08:26:24.383Z,28.461304
2019-06-01T08:27:24.359Z,28.451233
2019-06-01T08:28:24.361Z,28.249817
2019-06-01T08:29:24.661Z,28.008118
2019-06-01T08:30:24.384Z,27.454224
2019-06-01T08:31:24.521Z,26.980896
2019-06-01T08:32:24.524Z,26.507568
2019-06-01T08:33:26.164Z,25.762329
2019-06-01T08:34:24.734Z,25.631409
2019-06-01T08:35:24.887Z,25.863037
2019-06-01T08:36:25.219Z,25.782471
2019-06-01T08:37:25.118Z,25.611267
2019-06-01T08:38:25.527Z,25.218506
2019-06-01T08:39:25.206Z,24.986877
2019-06-01T08:40:25.214Z,24.855957
2019-06-01T08:41:25.492Z,24.936523
2019-06-01T08:42:25.304Z,24.956665
2019-06-01T08:43:25.468Z,24.684753
2019-06-01T08:44:25.411Z,24.473267
2019-06-01T08:45:25.427Z,24.161072
2019-06-01T08:46:25.525Z,23.999939
2019-06-01T08:47:25.630Z,23.909302
2019-06-01T08:48:25.624Z,23.657532
2019-06-01T08:49:25.853Z,23.617249
2019-06-01T08:50:25.688Z,23.657532
2019-06-01T08:51:26.466Z,23.587036
2019-06-01T08:52:25.941Z,23.536682
2019-06-01T08:53:25.792Z,23.516541
2019-06-01T08:54:25.971Z,23.587036
2019-06-01T08:55:26.066Z,23.587036
2019-06-01T08:56:26.101Z,23.587036
2019-06-01T08:57:26.083Z,23.667603
2019-06-01T08:58:26.201Z,23.536682
2019-06-01T08:59:26.213Z,23.476257
2019-06-01T09:00:26.312Z,23.335266
2019-06-01T09:01:26.405Z,23.335266
2019-06-01T09:02:26.580Z,23.435974
2019-06-01T09:03:25.904Z,23.415833
2019-06-01T09:04:26.598Z,23.466187
2019-06-01T09:05:26.628Z,23.667603
2019-06-01T09:06:26.713Z,23.728027
2019-06-01T09:07:26.858Z,23.728027
2019-06-01T09:08:27.091Z,23.88916
2019-06-01T09:09:26.869Z,24.030151
2019-06-01T09:10:27.359Z,24.030151
2019-06-01T09:11:27.019Z,24.100647
2019-06-01T09:12:27.235Z,24.241638
2019-06-01T09:13:27.162Z,24.181213
2019-06-01T09:14:27.191Z,24.251709
2019-06-01T09:15:27.548Z,24.362488
2019-06-01T09:16:27.763Z,24.483337
2019-06-01T09:17:27.162Z,24.483337
2019-06-01T09:18:27.636Z,24.241638
2019-06-01T09:19:27.319Z,24.181213
2019-06-01T09:20:27.370Z,24.181213
2019-06-01T09:21:27.466Z,24.060364
2019-06-01T09:22:27.506Z,23.939514
2019-06-01T09:23:27.588Z,23.939514
2019-06-01T09:24:27.663Z,23.999939
2019-06-01T09:25:27.488Z,23.999939
2019-06-01T09:26:27.726Z,23.989868
2019-06-01T09:27:27.707Z,23.959656
2019-06-01T09:28:27.980Z,23.919373
2019-06-01T09:29:27.816Z,23.879089
2019-06-01T09:30:27.941Z,23.909302
2019-06-01T09:31:28.323Z,23.858948
2019-06-01T09:32:27.889Z,23.88916
2019-06-01T09:33:28.103Z,23.879089
2019-06-01T09:34:28.389Z,23.838806
2019-06-01T09:35:44.626Z,23.858948
2019-06-01T09:36:28.308Z,23.909302
2019-06-01T09:37:28.341Z,24.040222
2019-06-01T09:38:27.679Z,24.251709
2019-06-01T09:39:28.903Z,24.26178
2019-06-01T09:40:29.890Z,24.241638
2019-06-01T09:41:28.314Z,24.130859
2019-06-01T09:42:28.735Z,24.060364
2019-06-01T09:43:28.616Z,23.999939
2019-06-01T09:44:28.809Z,23.838806
2019-06-01T09:45:28.070Z,23.818665
2019-06-01T09:46:28.869Z,23.818665
2019-06-01T09:47:29.018Z,23.858948
2019-06-01T09:48:29.122Z,23.858948
2019-06-01T09:49:29.129Z,23.707886
2019-06-01T09:50:29.229Z,23.627319
2019-06-01T09:51:29.438Z,23.687744
2019-06-01T09:52:29.219Z,23.788452
2019-06-01T09:53:29.287Z,23.838806
2019-06-01T09:54:29.348Z,23.848877
2019-06-01T09:55:29.336Z,23.919373
2019-06-01T09:56:29.619Z,24.01001
2019-06-01T09:57:29.818Z,23.959656
2019-06-01T09:58:30.122Z,23.939514
2019-06-01T09:59:29.741Z,23.939514
2019-06-01T10:00:30.248Z,23.989868
2019-06-01T10:01:30.044Z,23.919373
2019-06-01T10:02:29.912Z,23.919373
2019-06-01T10:03:30.189Z,23.939514
2019-06-01T10:04:30.190Z,23.999939
2019-06-01T10:05:30.273Z,23.919373
2019-06-01T10:06:30.368Z,23.858948
2019-06-01T10:07:30.836Z,23.88916
2019-06-01T10:08:29.545Z,23.909302
2019-06-01T10:09:29.560Z,23.949585
2019-06-01T10:10:29.863Z,23.949585
2019-06-01T10:11:29.887Z,23.919373
2019-06-01T10:12:29.859Z,24.030151
2019-06-01T10:13:30.408Z,24.090576
2019-06-01T10:14:30.063Z,24.070435
2019-06-01T10:15:30.140Z,24.14093
2019-06-01T10:16:30.451Z,24.100647
2019-06-01T10:17:30.511Z,24.100647
2019-06-01T10:18:30.831Z,24.130859
2019-06-01T10:19:30.612Z,24.211426
2019-06-01T10:20:30.657Z,24.291992
2019-06-01T10:21:29.877Z,24.382629
2019-06-01T10:22:30.947Z,24.664612
2019-06-01T10:23:30.154Z,24.916382
2019-06-01T10:24:31.043Z,25.309143
2019-06-01T10:25:30.391Z,25.883179
2019-06-01T10:26:31.300Z,26.286011
2019-06-01T10:27:30.313Z,26.77948
2019-06-01T10:28:31.443Z,27.16217
2019-06-01T10:29:30.502Z,27.625427
2019-06-01T10:30:31.589Z,28.008118
2019-06-01T10:31:30.514Z,28.269958
2019-06-01T10:32:32.356Z,28.551941
2019-06-01T10:33:30.675Z,28.602295
2019-06-01T10:34:31.321Z,28.823853
2019-06-01T10:35:30.800Z,29.015198
2019-06-01T10:36:31.785Z,29.246826
2019-06-01T10:37:31.315Z,29.438171
2019-06-01T10:38:31.100Z,29.488525
2019-06-01T10:39:31.207Z,29.689941
2019-06-01T10:40:31.211Z,29.92157
2019-06-01T10:41:31.211Z,30.032349
2019-06-01T10:42:32.633Z,29.689941
2019-06-01T10:43:31.431Z,30.012207
2019-06-01T10:44:31.549Z,29.730225
2019-06-01T10:45:31.741Z,29.871216
2019-06-01T10:46:31.788Z,30.163269
2019-06-01T10:47:31.740Z,30.263977
2019-06-01T10:48:32.705Z,30.535889
2019-06-01T10:49:31.803Z,30.737305
2019-06-01T10:50:32.936Z,31.069641
2019-06-01T10:51:32.026Z,30.878296
2019-06-01T10:52:31.966Z,30.727234
2019-06-01T10:53:32.025Z,30.55603
2019-06-01T10:54:32.504Z,30.727234
2019-06-01T10:55:31.990Z,30.767517
2019-06-01T10:56:32.283Z,30.827942
2019-06-01T10:57:32.305Z,30.878296
2019-06-01T10:58:32.214Z,30.767517
2019-06-01T10:59:32.198Z,30.777588
2019-06-01T11:00:38.579Z,30.948792
2019-06-01T11:01:34.261Z,30.888367
2019-06-01T11:02:32.515Z,31.019287
2019-06-01T11:03:32.483Z,31.422119
2019-06-01T11:04:32.747Z,31.502686
2019-06-01T11:05:32.519Z,31.573181
2019-06-01T11:06:37.571Z,31.744385
2019-06-01T11:07:32.731Z,31.200562
2019-06-01T11:08:32.797Z,31.18042
2019-06-01T11:09:32.990Z,31.482544
2019-06-01T11:12:16.261Z,31.734314
2019-06-01T11:13:16.304Z,31.925659
2019-06-01T11:14:16.356Z,31.482544
2019-06-01T11:15:16.453Z,31.140137
2019-06-01T11:16:16.478Z,31.069641
2019-06-01T11:17:16.515Z,30.354614
2019-06-01T11:18:16.515Z,30.183411
2019-06-01T11:19:16.635Z,29.80072
2019-06-01T11:20:16.644Z,29.730225
2019-06-01T11:21:16.703Z,29.810791
2019-06-01T11:22:16.752Z,29.992065
2019-06-01T11:23:16.752Z,29.901428
2019-06-01T11:24:16.789Z,30.032349
2019-06-01T11:25:16.817Z,29.992065
2019-06-01T11:26:16.892Z,29.961853
2019-06-01T11:27:16.952Z,30.294189
2019-06-01T11:28:16.937Z,30.737305